Tamaya, New Mexico
Current Conditions -  °F | °C
As of 8:48 AM on Thursday 30 Oct 2014 (Local Time) from KAEG Reporting Station
Clear Clear  
Wind Chill: 54°   Ceiling: Unl
Heat Index: 54°   Visibility: 10mi
Dew Point: 12°   Wind: 9mph
Humidity: 19%   Direction: 340°NNW
Pressure: 30.35"   Gusts: NA
Location:  35.4078°N, 106.82°W
Report Text: KAEG 301448Z 34008KT 10SM SKC 12/M11 A3035
Loading
Personal Weather Stations






























Interactive Weather Map
Tropical Storm Tracking
New forecast layout! Learn more

10-Day Weather Forecast

Advertisements
Track Severe Weather on mobile